KCID/CID METAR and TAF weather

Enter ICAO airport designator
Station Type Date Time Source
KCID METAR 2021/05/15 01:52 UTC NOAA

KCID 150152Z 12006KT 10SM -RA OVC080 12/09 A3016 RMK AO2 RAB0057 SLP214 P0003 T01220089


Station Type Date Time Source
KCID Decoded METAR 2021/05/15 01:52 UTC NOAA

CEDAR RAPIDS AIRPORT, IA, United States (KCID) 41-53N 91-43W
May 14, 2021 - 09:52 PM EDT / 2021.05.15 0152 UTC
Wind: from the ESE (120 degrees) at 7 MPH (6 KT):0
Visibility: 10 mile(s):0
Sky conditions: overcast
Weather: light rain
Precipitation last hour: 0.03 inches
Temperature: 54.0 F (12.2 C)
Dew Point: 48.0 F (8.9 C)
Relative Humidity: 80%
Pressure (altimeter): 30.16 in. Hg (1021 hPa)
ob: KCID 150152Z 12006KT 10SM -RA OVC080 12/09 A3016 RMK AO2 RAB0057 SLP214 P0003 T01220089
cycle: 2

Station Type Date Time Source
KCID TAF 2021/05/14 18:42 UTC NOAA

TAF KCID 141740Z 1418/1518 19014G23KT P6SM BKN200
FM142300 18012KT 6SM -SHRA BKN040
FM150200 16008KT 6SM -SHRA OVC040
FM150400 14007KT P6SM OVC050 PROB30 1504/1508 5SM -SHRA BKN035
FM151000 16008KT P6SM OVC025

Example: see airport list